sensor_id;sensor_type;location;lat;lon;timestamp;P1;durP1;ratioP1;P2;durP2;ratioP2
75620;SDS011;64574;48.506;-2.750;2023-02-28T00:01:18;7.28;;;1.73;;
75620;SDS011;64574;48.506;-2.750;2023-02-28T00:03:44;6.22;;;1.83;;
75620;SDS011;64574;48.506;-2.750;2023-02-28T00:06:10;6.78;;;1.60;;
75620;SDS011;64574;48.506;-2.750;2023-02-28T00:08:36;5.25;;;1.77;;
75620;SDS011;64574;48.506;-2.750;2023-02-28T00:11:03;5.30;;;1.45;;
75620;SDS011;64574;48.506;-2.750;2023-02-28T00:13:29;3.90;;;1.35;;
75620;SDS011;64574;48.506;-2.750;2023-02-28T00:16:02;4.60;;;1.42;;
75620;SDS011;64574;48.506;-2.750;2023-02-28T00:18:34;6.28;;;1.88;;
75620;SDS011;64574;48.506;-2.750;2023-02-28T00:20:59;6.05;;;1.55;;
75620;SDS011;64574;48.506;-2.750;2023-02-28T00:23:26;4.78;;;1.80;;
75620;SDS011;64574;48.506;-2.750;2023-02-28T00:25:52;10.02;;;2.50;;
75620;SDS011;64574;48.506;-2.750;2023-02-28T00:28:18;4.75;;;2.15;;
75620;SDS011;64574;48.506;-2.750;2023-02-28T00:30:44;6.10;;;1.77;;
75620;SDS011;64574;48.506;-2.750;2023-02-28T00:33:09;5.20;;;1.50;;
75620;SDS011;64574;48.506;-2.750;2023-02-28T00:35:35;8.57;;;1.77;;
75620;SDS011;64574;48.506;-2.750;2023-02-28T00:38:01;5.35;;;1.42;;
75620;SDS011;64574;48.506;-2.750;2023-02-28T00:40:27;4.25;;;1.70;;
75620;SDS011;64574;48.506;-2.750;2023-02-28T00:42:53;5.45;;;1.65;;
75620;SDS011;64574;48.506;-2.750;2023-02-28T00:45:18;5.88;;;1.92;;
75620;SDS011;64574;48.506;-2.750;2023-02-28T00:47:44;3.78;;;1.83;;
75620;SDS011;64574;48.506;-2.750;2023-02-28T00:50:11;7.20;;;1.70;;
75620;SDS011;64574;48.506;-2.750;2023-02-28T00:52:37;7.40;;;1.90;;
75620;SDS011;64574;48.506;-2.750;2023-02-28T00:55:03;5.60;;;2.00;;
75620;SDS011;64574;48.506;-2.750;2023-02-28T00:57:29;6.80;;;1.90;;
75620;SDS011;64574;48.506;-2.750;2023-02-28T00:59:55;6.85;;;2.20;;
75620;SDS011;64574;48.506;-2.750;2023-02-28T01:02:23;4.85;;;2.05;;
75620;SDS011;64574;48.506;-2.750;2023-02-28T01:04:49;4.80;;;2.15;;
75620;SDS011;64574;48.506;-2.750;2023-02-28T01:07:14;7.95;;;2.13;;
75620;SDS011;64574;48.506;-2.750;2023-02-28T01:09:41;6.22;;;1.98;;
75620;SDS011;64574;48.506;-2.750;2023-02-28T01:12:07;6.18;;;2.38;;
75620;SDS011;64574;48.506;-2.750;2023-02-28T01:14:33;6.80;;;2.75;;
75620;SDS011;64574;48.506;-2.750;2023-02-28T01:16:59;6.95;;;2.10;;
75620;SDS011;64574;48.506;-2.750;2023-02-28T01:19:25;4.78;;;2.10;;
75620;SDS011;64574;48.506;-2.750;2023-02-28T01:21:51;7.30;;;2.58;;
75620;SDS011;64574;48.506;-2.750;2023-02-28T01:24:17;6.00;;;2.60;;
75620;SDS011;64574;48.506;-2.750;2023-02-28T01:26:42;7.90;;;2.30;;
75620;SDS011;64574;48.506;-2.750;2023-02-28T01:29:08;4.80;;;2.35;;
75620;SDS011;64574;48.506;-2.750;2023-02-28T01:31:34;6.20;;;2.65;;
75620;SDS011;64574;48.506;-2.750;2023-02-28T01:33:59;5.07;;;2.33;;
75620;SDS011;64574;48.506;-2.750;2023-02-28T01:36:25;5.78;;;2.63;;
75620;SDS011;64574;48.506;-2.750;2023-02-28T01:38:51;5.10;;;2.88;;
75620;SDS011;64574;48.506;-2.750;2023-02-28T01:41:25;5.32;;;2.47;;
75620;SDS011;64574;48.506;-2.750;2023-02-28T01:43:58;4.82;;;2.80;;
75620;SDS011;64574;48.506;-2.750;2023-02-28T01:46:24;5.75;;;2.72;;
75620;SDS011;64574;48.506;-2.750;2023-02-28T01:51:33;7.18;;;3.33;;
75620;SDS011;64574;48.506;-2.750;2023-02-28T01:54:09;10.65;;;3.83;;
75620;SDS011;64574;48.506;-2.750;2023-02-28T01:56:38;9.43;;;4.28;;
75620;SDS011;64574;48.506;-2.750;2023-02-28T01:59:08;10.85;;;4.60;;
75620;SDS011;64574;48.506;-2.750;2023-02-28T02:01:35;8.48;;;3.90;;
75620;SDS011;64574;48.506;-2.750;2023-02-28T02:04:01;11.00;;;4.57;;
75620;SDS011;64574;48.506;-2.750;2023-02-28T02:06:38;11.30;;;4.57;;
75620;SDS011;64574;48.506;-2.750;2023-02-28T02:09:07;9.13;;;4.25;;
75620;SDS011;64574;48.506;-2.750;2023-02-28T02:11:33;8.95;;;3.72;;
75620;SDS011;64574;48.506;-2.750;2023-02-28T02:22:20;9.88;;;3.92;;
75620;SDS011;64574;48.506;-2.750;2023-02-28T02:25:11;7.97;;;3.53;;
75620;SDS011;64574;48.506;-2.750;2023-02-28T02:27:59;9.68;;;4.28;;
75620;SDS011;64574;48.506;-2.750;2023-02-28T02:36:38;6.63;;;3.70;;
75620;SDS011;64574;48.506;-2.750;2023-02-28T02:41:53;9.73;;;4.72;;
75620;SDS011;64574;48.506;-2.750;2023-02-28T02:45:06;7.20;;;4.22;;
75620;SDS011;64574;48.506;-2.750;2023-02-28T02:47:17;7.97;;;3.83;;
75620;SDS011;64574;48.506;-2.750;2023-02-28T02:49:46;8.77;;;5.03;;
75620;SDS011;64574;48.506;-2.750;2023-02-28T02:52:16;7.70;;;4.40;;
75620;SDS011;64574;48.506;-2.750;2023-02-28T02:54:47;7.13;;;4.30;;
75620;SDS011;64574;48.506;-2.750;2023-02-28T02:57:17;8.07;;;3.88;;
75620;SDS011;64574;48.506;-2.750;2023-02-28T02:59:56;5.40;;;3.95;;
75620;SDS011;64574;48.506;-2.750;2023-02-28T03:02:24;10.52;;;4.57;;
75620;SDS011;64574;48.506;-2.750;2023-02-28T03:04:53;6.38;;;3.75;;
75620;SDS011;64574;48.506;-2.750;2023-02-28T03:07:25;6.45;;;3.75;;
75620;SDS011;64574;48.506;-2.750;2023-02-28T03:09:52;9.55;;;3.83;;
75620;SDS011;64574;48.506;-2.750;2023-02-28T03:12:19;6.00;;;3.42;;
75620;SDS011;64574;48.506;-2.750;2023-02-28T03:14:49;7.57;;;4.18;;
75620;SDS011;64574;48.506;-2.750;2023-02-28T03:28:12;6.55;;;4.00;;
75620;SDS011;64574;48.506;-2.750;2023-02-28T03:30:50;6.80;;;3.67;;
75620;SDS011;64574;48.506;-2.750;2023-02-28T03:33:27;7.82;;;4.20;;
75620;SDS011;64574;48.506;-2.750;2023-02-28T03:35:59;8.32;;;3.95;;
75620;SDS011;64574;48.506;-2.750;2023-02-28T03:41:26;6.97;;;3.20;;
75620;SDS011;64574;48.506;-2.750;2023-02-28T03:44:07;8.85;;;3.92;;
75620;SDS011;64574;48.506;-2.750;2023-02-28T03:46:41;6.53;;;4.38;;
75620;SDS011;64574;48.506;-2.750;2023-02-28T03:49:17;6.85;;;3.50;;
75620;SDS011;64574;48.506;-2.750;2023-02-28T03:51:47;6.68;;;4.05;;
75620;SDS011;64574;48.506;-2.750;2023-02-28T03:54:18;5.40;;;3.90;;
75620;SDS011;64574;48.506;-2.750;2023-02-28T03:59:42;8.60;;;4.03;;
75620;SDS011;64574;48.506;-2.750;2023-02-28T04:02:11;6.20;;;3.88;;
75620;SDS011;64574;48.506;-2.750;2023-02-28T04:04:36;6.50;;;3.45;;
75620;SDS011;64574;48.506;-2.750;2023-02-28T04:07:06;7.07;;;4.22;;
75620;SDS011;64574;48.506;-2.750;2023-02-28T04:09:33;6.80;;;4.13;;
75620;SDS011;64574;48.506;-2.750;2023-02-28T04:11:59;6.55;;;3.42;;
75620;SDS011;64574;48.506;-2.750;2023-02-28T04:14:25;7.97;;;4.22;;
75620;SDS011;64574;48.506;-2.750;2023-02-28T04:16:51;6.95;;;4.28;;
75620;SDS011;64574;48.506;-2.750;2023-02-28T04:19:17;6.25;;;3.83;;
75620;SDS011;64574;48.506;-2.750;2023-02-28T04:21:44;7.90;;;3.85;;
75620;SDS011;64574;48.506;-2.750;2023-02-28T04:24:23;6.68;;;3.55;;
75620;SDS011;64574;48.506;-2.750;2023-02-28T04:26:51;7.95;;;4.35;;
75620;SDS011;64574;48.506;-2.750;2023-02-28T04:29:25;6.85;;;4.30;;
75620;SDS011;64574;48.506;-2.750;2023-02-28T04:31:55;6.82;;;4.13;;
75620;SDS011;64574;48.506;-2.750;2023-02-28T04:34:27;6.65;;;3.92;;
75620;SDS011;64574;48.506;-2.750;2023-02-28T04:36:55;8.15;;;4.55;;
75620;SDS011;64574;48.506;-2.750;2023-02-28T04:39:21;8.98;;;5.05;;
75620;SDS011;64574;48.506;-2.750;2023-02-28T04:41:47;6.78;;;4.97;;
75620;SDS011;64574;48.506;-2.750;2023-02-28T04:44:13;8.98;;;4.78;;
75620;SDS011;64574;48.506;-2.750;2023-02-28T04:46:39;10.95;;;4.90;;
75620;SDS011;64574;48.506;-2.750;2023-02-28T04:49:05;7.55;;;5.05;;
75620;SDS011;64574;48.506;-2.750;2023-02-28T04:51:30;9.13;;;4.68;;
75620;SDS011;64574;48.506;-2.750;2023-02-28T04:53:56;8.25;;;4.90;;
75620;SDS011;64574;48.506;-2.750;2023-02-28T04:56:22;7.20;;;4.78;;
75620;SDS011;64574;48.506;-2.750;2023-02-28T04:58:48;7.65;;;5.50;;
75620;SDS011;64574;48.506;-2.750;2023-02-28T05:03:43;8.98;;;5.60;;
75620;SDS011;64574;48.506;-2.750;2023-02-28T05:06:09;8.65;;;5.60;;
75620;SDS011;64574;48.506;-2.750;2023-02-28T05:08:36;7.97;;;4.60;;
75620;SDS011;64574;48.506;-2.750;2023-02-28T05:11:02;7.75;;;5.15;;
75620;SDS011;64574;48.506;-2.750;2023-02-28T05:13:29;5.95;;;4.53;;
75620;SDS011;64574;48.506;-2.750;2023-02-28T05:15:55;7.15;;;5.28;;
75620;SDS011;64574;48.506;-2.750;2023-02-28T05:18:20;8.18;;;5.05;;
75620;SDS011;64574;48.506;-2.750;2023-02-28T05:20:46;9.35;;;5.30;;
75620;SDS011;64574;48.506;-2.750;2023-02-28T05:23:12;12.40;;;8.30;;
75620;SDS011;64574;48.506;-2.750;2023-02-28T05:25:39;7.45;;;4.57;;
75620;SDS011;64574;48.506;-2.750;2023-02-28T05:28:05;7.90;;;5.30;;
75620;SDS011;64574;48.506;-2.750;2023-02-28T05:30:31;8.57;;;6.22;;
75620;SDS011;64574;48.506;-2.750;2023-02-28T05:32:57;7.88;;;5.03;;
75620;SDS011;64574;48.506;-2.750;2023-02-28T05:35:24;7.13;;;5.43;;
75620;SDS011;64574;48.506;-2.750;2023-02-28T05:37:50;6.45;;;5.05;;
75620;SDS011;64574;48.506;-2.750;2023-02-28T05:40:15;10.45;;;5.60;;
75620;SDS011;64574;48.506;-2.750;2023-02-28T05:42:41;8.00;;;5.15;;
75620;SDS011;64574;48.506;-2.750;2023-02-28T05:45:07;7.53;;;5.05;;
75620;SDS011;64574;48.506;-2.750;2023-02-28T05:47:34;7.45;;;5.30;;
75620;SDS011;64574;48.506;-2.750;2023-02-28T05:50:00;8.85;;;5.03;;
75620;SDS011;64574;48.506;-2.750;2023-02-28T05:52:26;6.03;;;4.30;;
75620;SDS011;64574;48.506;-2.750;2023-02-28T05:54:52;8.98;;;5.18;;
75620;SDS011;64574;48.506;-2.750;2023-02-28T05:57:18;6.68;;;5.07;;
75620;SDS011;64574;48.506;-2.750;2023-02-28T05:59:43;8.20;;;4.60;;
75620;SDS011;64574;48.506;-2.750;2023-02-28T06:02:12;6.80;;;4.40;;
75620;SDS011;64574;48.506;-2.750;2023-02-28T06:04:40;7.85;;;5.32;;
75620;SDS011;64574;48.506;-2.750;2023-02-28T06:07:06;11.88;;;5.90;;
75620;SDS011;64574;48.506;-2.750;2023-02-28T06:09:32;8.55;;;4.90;;
75620;SDS011;64574;48.506;-2.750;2023-02-28T06:11:58;9.68;;;4.45;;
75620;SDS011;64574;48.506;-2.750;2023-02-28T06:14:27;9.32;;;5.60;;
75620;SDS011;64574;48.506;-2.750;2023-02-28T06:16:53;9.80;;;6.30;;
75620;SDS011;64574;48.506;-2.750;2023-02-28T06:19:19;8.38;;;5.80;;
75620;SDS011;64574;48.506;-2.750;2023-02-28T06:21:44;7.70;;;5.63;;
75620;SDS011;64574;48.506;-2.750;2023-02-28T06:24:13;9.60;;;6.20;;
75620;SDS011;64574;48.506;-2.750;2023-02-28T06:26:39;11.00;;;5.47;;
75620;SDS011;64574;48.506;-2.750;2023-02-28T06:29:05;9.00;;;5.78;;
75620;SDS011;64574;48.506;-2.750;2023-02-28T06:31:31;10.00;;;5.70;;
75620;SDS011;64574;48.506;-2.750;2023-02-28T06:33:56;9.07;;;6.85;;
75620;SDS011;64574;48.506;-2.750;2023-02-28T06:36:22;6.05;;;4.88;;
75620;SDS011;64574;48.506;-2.750;2023-02-28T06:38:48;9.30;;;6.10;;
75620;SDS011;64574;48.506;-2.750;2023-02-28T06:41:19;11.63;;;6.68;;
75620;SDS011;64574;48.506;-2.750;2023-02-28T06:43:46;12.85;;;6.70;;
75620;SDS011;64574;48.506;-2.750;2023-02-28T06:46:12;10.95;;;6.15;;
75620;SDS011;64574;48.506;-2.750;2023-02-28T06:48:39;8.55;;;5.85;;
75620;SDS011;64574;48.506;-2.750;2023-02-28T06:51:06;9.63;;;6.07;;
75620;SDS011;64574;48.506;-2.750;2023-02-28T06:53:34;11.75;;;5.72;;
75620;SDS011;64574;48.506;-2.750;2023-02-28T06:56:03;9.93;;;6.30;;
75620;SDS011;64574;48.506;-2.750;2023-02-28T06:58:33;12.02;;;7.00;;
75620;SDS011;64574;48.506;-2.750;2023-02-28T07:00:59;11.63;;;7.05;;
75620;SDS011;64574;48.506;-2.750;2023-02-28T07:03:24;10.77;;;6.95;;
75620;SDS011;64574;48.506;-2.750;2023-02-28T07:05:50;9.38;;;5.78;;
75620;SDS011;64574;48.506;-2.750;2023-02-28T07:08:15;16.85;;;7.47;;
75620;SDS011;64574;48.506;-2.750;2023-02-28T07:10:41;9.48;;;5.57;;
75620;SDS011;64574;48.506;-2.750;2023-02-28T07:13:07;8.55;;;5.97;;
75620;SDS011;64574;48.506;-2.750;2023-02-28T07:15:34;11.52;;;7.82;;
75620;SDS011;64574;48.506;-2.750;2023-02-28T07:18:00;8.98;;;5.80;;
75620;SDS011;64574;48.506;-2.750;2023-02-28T07:20:26;7.95;;;5.97;;
75620;SDS011;64574;48.506;-2.750;2023-02-28T07:22:51;11.52;;;7.13;;
75620;SDS011;64574;48.506;-2.750;2023-02-28T07:25:25;6.82;;;5.68;;
75620;SDS011;64574;48.506;-2.750;2023-02-28T07:27:52;11.57;;;7.28;;
75620;SDS011;64574;48.506;-2.750;2023-02-28T07:30:19;9.25;;;6.97;;
75620;SDS011;64574;48.506;-2.750;2023-02-28T07:32:44;9.57;;;7.38;;
75620;SDS011;64574;48.506;-2.750;2023-02-28T07:35:10;12.85;;;6.55;;
75620;SDS011;64574;48.506;-2.750;2023-02-28T07:37:36;9.63;;;5.80;;
75620;SDS011;64574;48.506;-2.750;2023-02-28T07:40:03;7.70;;;6.15;;
75620;SDS011;64574;48.506;-2.750;2023-02-28T07:42:32;7.43;;;5.50;;
75620;SDS011;64574;48.506;-2.750;2023-02-28T07:44:57;12.15;;;6.90;;
75620;SDS011;64574;48.506;-2.750;2023-02-28T07:47:24;11.02;;;6.97;;
75620;SDS011;64574;48.506;-2.750;2023-02-28T07:49:49;12.57;;;6.85;;
75620;SDS011;64574;48.506;-2.750;2023-02-28T07:52:15;8.48;;;6.20;;
75620;SDS011;64574;48.506;-2.750;2023-02-28T07:54:40;12.75;;;6.95;;
75620;SDS011;64574;48.506;-2.750;2023-02-28T07:57:06;12.73;;;7.30;;
75620;SDS011;64574;48.506;-2.750;2023-02-28T07:59:32;9.82;;;6.10;;
75620;SDS011;64574;48.506;-2.750;2023-02-28T08:01:57;9.70;;;5.80;;
75620;SDS011;64574;48.506;-2.750;2023-02-28T08:04:24;10.80;;;6.82;;
75620;SDS011;64574;48.506;-2.750;2023-02-28T08:06:50;9.05;;;6.15;;
75620;SDS011;64574;48.506;-2.750;2023-02-28T08:09:18;11.07;;;6.63;;
75620;SDS011;64574;48.506;-2.750;2023-02-28T08:11:44;13.38;;;6.68;;
75620;SDS011;64574;48.506;-2.750;2023-02-28T08:14:09;10.00;;;6.30;;
75620;SDS011;64574;48.506;-2.750;2023-02-28T08:16:35;9.38;;;6.15;;
75620;SDS011;64574;48.506;-2.750;2023-02-28T08:19:00;8.48;;;6.22;;
75620;SDS011;64574;48.506;-2.750;2023-02-28T08:21:26;9.05;;;6.10;;
75620;SDS011;64574;48.506;-2.750;2023-02-28T08:23:51;8.82;;;6.38;;
75620;SDS011;64574;48.506;-2.750;2023-02-28T08:26:17;7.90;;;5.07;;
75620;SDS011;64574;48.506;-2.750;2023-02-28T08:28:43;9.80;;;6.35;;
75620;SDS011;64574;48.506;-2.750;2023-02-28T08:31:10;8.90;;;5.97;;
75620;SDS011;64574;48.506;-2.750;2023-02-28T08:33:38;11.10;;;6.45;;
75620;SDS011;64574;48.506;-2.750;2023-02-28T08:36:05;9.88;;;5.93;;
75620;SDS011;64574;48.506;-2.750;2023-02-28T08:38:31;12.68;;;8.10;;
75620;SDS011;64574;48.506;-2.750;2023-02-28T08:41:01;8.15;;;5.10;;
75620;SDS011;64574;48.506;-2.750;2023-02-28T08:43:30;8.68;;;5.32;;
75620;SDS011;64574;48.506;-2.750;2023-02-28T08:45:56;6.90;;;5.43;;
75620;SDS011;64574;48.506;-2.750;2023-02-28T08:48:25;8.95;;;6.07;;
75620;SDS011;64574;48.506;-2.750;2023-02-28T08:50:55;8.93;;;6.03;;
75620;SDS011;64574;48.506;-2.750;2023-02-28T08:53:31;8.23;;;5.47;;
75620;SDS011;64574;48.506;-2.750;2023-02-28T08:55:58;8.70;;;5.05;;
75620;SDS011;64574;48.506;-2.750;2023-02-28T08:58:29;8.35;;;5.55;;
75620;SDS011;64574;48.506;-2.750;2023-02-28T09:00:55;7.75;;;5.35;;
75620;SDS011;64574;48.506;-2.750;2023-02-28T09:03:20;8.15;;;5.60;;
75620;SDS011;64574;48.506;-2.750;2023-02-28T09:08:19;9.20;;;6.28;;
75620;SDS011;64574;48.506;-2.750;2023-02-28T09:10:45;8.55;;;5.50;;
75620;SDS011;64574;48.506;-2.750;2023-02-28T09:13:10;9.07;;;5.60;;
75620;SDS011;64574;48.506;-2.750;2023-02-28T09:15:39;8.57;;;5.18;;
75620;SDS011;64574;48.506;-2.750;2023-02-28T09:18:05;10.48;;;5.82;;
75620;SDS011;64574;48.506;-2.750;2023-02-28T09:20:30;12.00;;;5.57;;
75620;SDS011;64574;48.506;-2.750;2023-02-28T09:22:56;9.45;;;5.70;;
75620;SDS011;64574;48.506;-2.750;2023-02-28T09:25:21;7.88;;;5.60;;
75620;SDS011;64574;48.506;-2.750;2023-02-28T09:27:47;9.25;;;6.18;;
75620;SDS011;64574;48.506;-2.750;2023-02-28T09:30:13;7.85;;;5.80;;
75620;SDS011;64574;48.506;-2.750;2023-02-28T09:32:39;8.18;;;6.13;;
75620;SDS011;64574;48.506;-2.750;2023-02-28T09:35:05;6.32;;;5.22;;
75620;SDS011;64574;48.506;-2.750;2023-02-28T09:37:31;8.85;;;4.75;;
75620;SDS011;64574;48.506;-2.750;2023-02-28T09:39:56;6.90;;;4.43;;
75620;SDS011;64574;48.506;-2.750;2023-02-28T09:42:28;10.20;;;5.60;;
75620;SDS011;64574;48.506;-2.750;2023-02-28T09:44:58;11.07;;;5.38;;
75620;SDS011;64574;48.506;-2.750;2023-02-28T09:47:28;10.23;;;5.30;;
75620;SDS011;64574;48.506;-2.750;2023-02-28T09:49:58;8.48;;;5.25;;
75620;SDS011;64574;48.506;-2.750;2023-02-28T09:52:46;9.10;;;5.32;;
75620;SDS011;64574;48.506;-2.750;2023-02-28T09:57:49;8.35;;;5.40;;
75620;SDS011;64574;48.506;-2.750;2023-02-28T10:05:19;9.05;;;5.57;;
75620;SDS011;64574;48.506;-2.750;2023-02-28T10:10:21;7.97;;;5.55;;
75620;SDS011;64574;48.506;-2.750;2023-02-28T10:13:06;8.15;;;4.88;;
75620;SDS011;64574;48.506;-2.750;2023-02-28T10:15:40;9.10;;;5.68;;
75620;SDS011;64574;48.506;-2.750;2023-02-28T10:18:09;7.45;;;5.50;;
75620;SDS011;64574;48.506;-2.750;2023-02-28T10:20:39;12.15;;;5.75;;
75620;SDS011;64574;48.506;-2.750;2023-02-28T10:23:18;8.80;;;5.35;;
75620;SDS011;64574;48.506;-2.750;2023-02-28T10:25:57;8.10;;;5.80;;
75620;SDS011;64574;48.506;-2.750;2023-02-28T10:30:53;6.43;;;4.85;;
75620;SDS011;64574;48.506;-2.750;2023-02-28T10:33:24;8.45;;;5.50;;
75620;SDS011;64574;48.506;-2.750;2023-02-28T10:35:54;7.38;;;4.53;;
75620;SDS011;64574;48.506;-2.750;2023-02-28T10:38:27;8.88;;;5.20;;
75620;SDS011;64574;48.506;-2.750;2023-02-28T10:41:04;7.35;;;5.28;;
75620;SDS011;64574;48.506;-2.750;2023-02-28T10:43:32;8.52;;;4.90;;
75620;SDS011;64574;48.506;-2.750;2023-02-28T10:45:59;8.20;;;5.80;;
75620;SDS011;64574;48.506;-2.750;2023-02-28T10:51:13;8.98;;;5.80;;
75620;SDS011;64574;48.506;-2.750;2023-02-28T10:53:50;11.50;;;5.60;;
75620;SDS011;64574;48.506;-2.750;2023-02-28T10:56:18;16.05;;;6.47;;
75620;SDS011;64574;48.506;-2.750;2023-02-28T10:58:54;11.95;;;5.63;;
75620;SDS011;64574;48.506;-2.750;2023-02-28T11:01:38;10.90;;;5.70;;
75620;SDS011;64574;48.506;-2.750;2023-02-28T11:04:16;10.93;;;5.70;;
75620;SDS011;64574;48.506;-2.750;2023-02-28T11:06:44;11.90;;;5.80;;
75620;SDS011;64574;48.506;-2.750;2023-02-28T11:12:02;9.00;;;5.65;;
75620;SDS011;64574;48.506;-2.750;2023-02-28T11:14:31;9.90;;;5.20;;
75620;SDS011;64574;48.506;-2.750;2023-02-28T11:17:12;9.43;;;5.22;;
75620;SDS011;64574;48.506;-2.750;2023-02-28T11:19:44;11.90;;;5.35;;
75620;SDS011;64574;48.506;-2.750;2023-02-28T11:22:16;9.27;;;5.35;;
75620;SDS011;64574;48.506;-2.750;2023-02-28T11:24:46;10.30;;;5.97;;
75620;SDS011;64574;48.506;-2.750;2023-02-28T11:27:25;10.30;;;5.65;;
75620;SDS011;64574;48.506;-2.750;2023-02-28T11:30:04;7.70;;;4.80;;
75620;SDS011;64574;48.506;-2.750;2023-02-28T11:32:55;10.25;;;4.97;;
75620;SDS011;64574;48.506;-2.750;2023-02-28T11:38:04;9.70;;;5.30;;
75620;SDS011;64574;48.506;-2.750;2023-02-28T11:46:11;12.20;;;5.78;;
75620;SDS011;64574;48.506;-2.750;2023-02-28T11:51:42;9.40;;;5.53;;
75620;SDS011;64574;48.506;-2.750;2023-02-28T11:59:50;14.00;;;5.90;;
75620;SDS011;64574;48.506;-2.750;2023-02-28T12:06:02;11.65;;;6.03;;
75620;SDS011;64574;48.506;-2.750;2023-02-28T12:10:33;9.07;;;6.07;;
75620;SDS011;64574;48.506;-2.750;2023-02-28T12:13:22;14.05;;;6.47;;
75620;SDS011;64574;48.506;-2.750;2023-02-28T12:21:44;9.90;;;5.45;;
75620;SDS011;64574;48.506;-2.750;2023-02-28T12:27:20;10.40;;;5.97;;
75620;SDS011;64574;48.506;-2.750;2023-02-28T12:29:50;11.30;;;6.03;;
75620;SDS011;64574;48.506;-2.750;2023-02-28T12:32:23;9.23;;;5.85;;
75620;SDS011;64574;48.506;-2.750;2023-02-28T12:34:57;9.18;;;6.20;;
75620;SDS011;64574;48.506;-2.750;2023-02-28T12:37:37;14.65;;;7.28;;
75620;SDS011;64574;48.506;-2.750;2023-02-28T12:40:06;9.23;;;5.65;;
75620;SDS011;64574;48.506;-2.750;2023-02-28T12:42:42;8.85;;;6.30;;
75620;SDS011;64574;48.506;-2.750;2023-02-28T12:48:31;12.48;;;5.00;;
75620;SDS011;64574;48.506;-2.750;2023-02-28T12:51:04;9.48;;;5.72;;
75620;SDS011;64574;48.506;-2.750;2023-02-28T12:58:58;10.85;;;6.40;;
75620;SDS011;64574;48.506;-2.750;2023-02-28T13:06:59;9.38;;;5.47;;
75620;SDS011;64574;48.506;-2.750;2023-02-28T13:09:50;7.93;;;5.00;;
75620;SDS011;64574;48.506;-2.750;2023-02-28T13:12:21;7.10;;;5.00;;
75620;SDS011;64574;48.506;-2.750;2023-02-28T13:14:48;7.75;;;4.75;;
75620;SDS011;64574;48.506;-2.750;2023-02-28T13:17:21;7.20;;;5.13;;
75620;SDS011;64574;48.506;-2.750;2023-02-28T13:29:49;8.93;;;4.22;;
75620;SDS011;64574;48.506;-2.750;2023-02-28T13:32:19;9.52;;;5.13;;
75620;SDS011;64574;48.506;-2.750;2023-02-28T13:40:36;7.15;;;4.60;;
75620;SDS011;64574;48.506;-2.750;2023-02-28T13:43:02;9.80;;;4.45;;
75620;SDS011;64574;48.506;-2.750;2023-02-28T13:45:30;8.68;;;5.07;;
75620;SDS011;64574;48.506;-2.750;2023-02-28T13:48:02;8.80;;;4.60;;
75620;SDS011;64574;48.506;-2.750;2023-02-28T13:50:35;10.52;;;4.28;;
75620;SDS011;64574;48.506;-2.750;2023-02-28T13:58:44;8.90;;;4.60;;
75620;SDS011;64574;48.506;-2.750;2023-02-28T14:07:00;9.07;;;4.47;;
75620;SDS011;64574;48.506;-2.750;2023-02-28T14:09:29;10.88;;;4.90;;
75620;SDS011;64574;48.506;-2.750;2023-02-28T14:11:56;11.98;;;5.20;;
75620;SDS011;64574;48.506;-2.750;2023-02-28T14:17:04;7.00;;;4.13;;
75620;SDS011;64574;48.506;-2.750;2023-02-28T14:19:38;11.20;;;5.35;;
75620;SDS011;64574;48.506;-2.750;2023-02-28T14:25:28;6.15;;;4.30;;
75620;SDS011;64574;48.506;-2.750;2023-02-28T14:28:17;8.48;;;4.18;;
75620;SDS011;64574;48.506;-2.750;2023-02-28T14:33:34;9.27;;;3.92;;
75620;SDS011;64574;48.506;-2.750;2023-02-28T14:36:13;6.85;;;4.20;;
75620;SDS011;64574;48.506;-2.750;2023-02-28T14:38:53;6.25;;;3.88;;
75620;SDS011;64574;48.506;-2.750;2023-02-28T14:43:51;6.65;;;3.55;;
75620;SDS011;64574;48.506;-2.750;2023-02-28T14:46:20;3.13;;;2.10;;
75620;SDS011;64574;48.506;-2.750;2023-02-28T14:48:47;6.88;;;2.53;;
75620;SDS011;64574;48.506;-2.750;2023-02-28T14:51:18;7.53;;;1.83;;
75620;SDS011;64574;48.506;-2.750;2023-02-28T14:53:48;4.15;;;1.50;;
75620;SDS011;64574;48.506;-2.750;2023-02-28T14:56:19;7.75;;;1.63;;
75620;SDS011;64574;48.506;-2.750;2023-02-28T14:58:51;3.10;;;1.10;;
75620;SDS011;64574;48.506;-2.750;2023-02-28T15:01:21;5.30;;;1.17;;
75620;SDS011;64574;48.506;-2.750;2023-02-28T15:03:56;3.90;;;1.52;;
75620;SDS011;64574;48.506;-2.750;2023-02-28T15:06:38;4.93;;;1.42;;
75620;SDS011;64574;48.506;-2.750;2023-02-28T15:09:37;4.35;;;1.33;;
75620;SDS011;64574;48.506;-2.750;2023-02-28T15:11:55;3.08;;;1.23;;
75620;SDS011;64574;48.506;-2.750;2023-02-28T15:14:21;8.25;;;1.33;;
75620;SDS011;64574;48.506;-2.750;2023-02-28T15:16:57;5.10;;;1.05;;
75620;SDS011;64574;48.506;-2.750;2023-02-28T15:19:28;3.50;;;1.00;;
75620;SDS011;64574;48.506;-2.750;2023-02-28T15:22:00;9.05;;;1.60;;
75620;SDS011;64574;48.506;-2.750;2023-02-28T15:24:38;5.25;;;1.08;;
75620;SDS011;64574;48.506;-2.750;2023-02-28T15:27:14;3.17;;;0.93;;
75620;SDS011;64574;48.506;-2.750;2023-02-28T15:29:51;4.72;;;0.80;;
75620;SDS011;64574;48.506;-2.750;2023-02-28T15:32:23;1.05;;;0.50;;
75620;SDS011;64574;48.506;-2.750;2023-02-28T15:34:50;3.17;;;0.68;;
75620;SDS011;64574;48.506;-2.750;2023-02-28T15:40:17;2.55;;;0.80;;
75620;SDS011;64574;48.506;-2.750;2023-02-28T15:42:57;4.03;;;0.65;;
75620;SDS011;64574;48.506;-2.750;2023-02-28T15:45:34;3.28;;;0.77;;
75620;SDS011;64574;48.506;-2.750;2023-02-28T15:48:25;3.65;;;1.00;;
75620;SDS011;64574;48.506;-2.750;2023-02-28T15:50:53;2.25;;;0.60;;
75620;SDS011;64574;48.506;-2.750;2023-02-28T15:53:22;8.15;;;1.00;;
75620;SDS011;64574;48.506;-2.750;2023-02-28T15:56:01;3.40;;;0.65;;
75620;SDS011;64574;48.506;-2.750;2023-02-28T15:58:32;4.80;;;1.00;;
75620;SDS011;64574;48.506;-2.750;2023-02-28T16:01:05;7.15;;;0.98;;
75620;SDS011;64574;48.506;-2.750;2023-02-28T16:03:50;3.70;;;0.88;;
75620;SDS011;64574;48.506;-2.750;2023-02-28T16:09:09;5.85;;;1.00;;
75620;SDS011;64574;48.506;-2.750;2023-02-28T16:11:49;11.50;;;1.00;;
75620;SDS011;64574;48.506;-2.750;2023-02-28T16:14:18;7.25;;;1.30;;
75620;SDS011;64574;48.506;-2.750;2023-02-28T16:16:49;7.10;;;1.05;;
75620;SDS011;64574;48.506;-2.750;2023-02-28T16:19:16;4.55;;;1.23;;
75620;SDS011;64574;48.506;-2.750;2023-02-28T16:21:42;4.15;;;1.30;;
75620;SDS011;64574;48.506;-2.750;2023-02-28T16:24:08;3.83;;;1.45;;
75620;SDS011;64574;48.506;-2.750;2023-02-28T16:26:34;3.75;;;1.10;;
75620;SDS011;64574;48.506;-2.750;2023-02-28T16:29:02;6.93;;;1.15;;
75620;SDS011;64574;48.506;-2.750;2023-02-28T16:31:28;5.20;;;1.40;;
75620;SDS011;64574;48.506;-2.750;2023-02-28T16:34:02;4.55;;;1.10;;
75620;SDS011;64574;48.506;-2.750;2023-02-28T16:36:28;5.65;;;1.58;;
75620;SDS011;64574;48.506;-2.750;2023-02-28T16:38:55;4.28;;;1.25;;
75620;SDS011;64574;48.506;-2.750;2023-02-28T16:41:21;5.95;;;1.10;;
75620;SDS011;64574;48.506;-2.750;2023-02-28T16:43:50;7.38;;;2.03;;
75620;SDS011;64574;48.506;-2.750;2023-02-28T16:46:17;3.20;;;1.10;;
75620;SDS011;64574;48.506;-2.750;2023-02-28T16:48:44;6.03;;;1.73;;
75620;SDS011;64574;48.506;-2.750;2023-02-28T16:51:12;7.72;;;2.05;;
75620;SDS011;64574;48.506;-2.750;2023-02-28T16:53:40;6.50;;;1.95;;
75620;SDS011;64574;48.506;-2.750;2023-02-28T16:56:06;4.35;;;1.60;;
75620;SDS011;64574;48.506;-2.750;2023-02-28T16:58:40;4.72;;;1.65;;
75620;SDS011;64574;48.506;-2.750;2023-02-28T17:01:06;3.03;;;1.23;;
75620;SDS011;64574;48.506;-2.750;2023-02-28T17:03:32;3.40;;;1.45;;
75620;SDS011;64574;48.506;-2.750;2023-02-28T17:05:57;4.57;;;1.30;;
75620;SDS011;64574;48.506;-2.750;2023-02-28T17:08:23;3.42;;;1.55;;
75620;SDS011;64574;48.506;-2.750;2023-02-28T17:10:49;5.70;;;1.55;;
75620;SDS011;64574;48.506;-2.750;2023-02-28T17:13:14;4.95;;;2.10;;
75620;SDS011;64574;48.506;-2.750;2023-02-28T17:15:40;8.85;;;1.70;;